SECU/CUE METAR and TAF weather

Enter ICAO airport designator
Station Type Date Time Source
SECU METAR 2018/12/10 13:00 UTC NOAA

SECU 101300Z 10002KT 9999 SCT005 BKN030 14/13 Q1028


Station Type Date Time Source
SECU Decoded METAR 2018/12/10 13:00 UTC NOAA

Cuenca / Mariscal Lamar, Ecuador (SECU) 02-53S 078-59W 2531M
Dec 10, 2018 - 08:00 AM EST / 2018.12.10 1300 UTC
Wind: from the E (100 degrees) at 2 MPH (2 KT):0
Visibility: greater than 7 mile(s):0
Sky conditions: mostly cloudy
Temperature: 57 F (14 C)
Dew Point: 55 F (13 C)
Relative Humidity: 93%
Pressure (altimeter): 30.36 in. Hg (1028 hPa)
ob: SECU 101300Z 10002KT 9999 SCT005 BKN030 14/13 Q1028
cycle: 13

Station Type Date Time Source
SECU TAF 2018/11/24 06:33 UTC NOAA

SECU 240430Z 2406/2506 VRB03KT 9999 OVC033
BECMG 2414/2415 SCT040 SCT100
FM241800 23010KT 9999 BKN040 SCT100
TEMPO 2420/2422 SHRA
FM250000 22006KT 9999 BKN033 TX23/2419Z TN12/2411Z


Example: see airport list